X  Luk Metar data        LGTS Thessaloniki Macedonia International
Temperatur
10°C Temperatur
10°C Duggpunkt
100% Fugtighed



Vind
2 M/S
5 MPT
7 KM/T
4 KNOB



80°
Ø
Nuværende forhold

Mostly Clear Mest klar
Tryk 1014 (hPa) - 29.94 (inHg)
Sigt 6 (mil) - 10 (km)
Lufthavn
Lufthavnskode LGTS

Lokation: Thessaloniki Macedonia International
Afstand: 85 (km)

Metar:
METAR LGTS 031950Z 08004KT 9999 FEW015 10/10 Q1014 NOSIG

Tid: 03-03-2024 21:50 EET